sensor_id;sensor_type;location;lat;lon;timestamp;P1;durP1;ratioP1;P2;durP2;ratioP2
59854;SDS011;45732;52.850;6.896;2022-09-27T00:01:58;6.95;;;1.30;;
59854;SDS011;45732;52.850;6.896;2022-09-27T00:04:24;8.52;;;2.05;;
59854;SDS011;45732;52.850;6.896;2022-09-27T00:06:50;6.95;;;1.25;;
59854;SDS011;45732;52.850;6.896;2022-09-27T00:09:16;7.55;;;1.38;;
59854;SDS011;45732;52.850;6.896;2022-09-27T00:11:42;9.32;;;1.33;;
59854;SDS011;45732;52.850;6.896;2022-09-27T00:14:08;8.75;;;1.23;;
59854;SDS011;45732;52.850;6.896;2022-09-27T00:16:36;9.00;;;1.65;;
59854;SDS011;45732;52.850;6.896;2022-09-27T00:19:10;8.13;;;1.65;;
59854;SDS011;45732;52.850;6.896;2022-09-27T00:21:37;13.48;;;1.95;;
59854;SDS011;45732;52.850;6.896;2022-09-27T00:24:03;8.93;;;1.27;;
59854;SDS011;45732;52.850;6.896;2022-09-27T00:26:30;9.45;;;1.48;;
59854;SDS011;45732;52.850;6.896;2022-09-27T00:28:56;9.20;;;1.65;;
59854;SDS011;45732;52.850;6.896;2022-09-27T00:31:23;6.60;;;1.40;;
59854;SDS011;45732;52.850;6.896;2022-09-27T00:33:56;11.73;;;2.05;;
59854;SDS011;45732;52.850;6.896;2022-09-27T00:36:24;10.38;;;2.15;;
59854;SDS011;45732;52.850;6.896;2022-09-27T00:38:51;10.63;;;1.65;;
59854;SDS011;45732;52.850;6.896;2022-09-27T00:41:18;10.60;;;1.80;;
59854;SDS011;45732;52.850;6.896;2022-09-27T00:43:51;7.45;;;1.52;;
59854;SDS011;45732;52.850;6.896;2022-09-27T00:46:22;9.40;;;1.85;;
59854;SDS011;45732;52.850;6.896;2022-09-27T00:48:59;6.72;;;1.30;;
59854;SDS011;45732;52.850;6.896;2022-09-27T00:51:44;8.40;;;1.30;;
59854;SDS011;45732;52.850;6.896;2022-09-27T00:54:19;9.95;;;1.58;;
59854;SDS011;45732;52.850;6.896;2022-09-27T00:56:49;7.57;;;1.42;;
59854;SDS011;45732;52.850;6.896;2022-09-27T00:59:25;8.80;;;1.33;;
59854;SDS011;45732;52.850;6.896;2022-09-27T01:01:58;4.63;;;1.13;;
59854;SDS011;45732;52.850;6.896;2022-09-27T01:04:25;6.78;;;1.20;;
59854;SDS011;45732;52.850;6.896;2022-09-27T01:06:53;9.20;;;1.35;;
59854;SDS011;45732;52.850;6.896;2022-09-27T01:09:19;8.27;;;1.27;;
59854;SDS011;45732;52.850;6.896;2022-09-27T01:17:22;7.00;;;1.10;;
59854;SDS011;45732;52.850;6.896;2022-09-27T01:33:45;8.35;;;1.02;;
59854;SDS011;45732;52.850;6.896;2022-09-27T01:39:31;7.40;;;1.10;;
59854;SDS011;45732;52.850;6.896;2022-09-27T01:42:30;7.55;;;1.02;;
59854;SDS011;45732;52.850;6.896;2022-09-27T01:45:08;8.20;;;1.10;;
59854;SDS011;45732;52.850;6.896;2022-09-27T01:47:40;8.93;;;1.25;;
59854;SDS011;45732;52.850;6.896;2022-09-27T01:50:17;9.02;;;1.27;;
59854;SDS011;45732;52.850;6.896;2022-09-27T01:52:58;4.68;;;1.00;;
59854;SDS011;45732;52.850;6.896;2022-09-27T01:55:32;6.13;;;1.05;;
59854;SDS011;45732;52.850;6.896;2022-09-27T01:58:18;5.28;;;1.08;;
59854;SDS011;45732;52.850;6.896;2022-09-27T02:00:49;4.93;;;0.95;;
59854;SDS011;45732;52.850;6.896;2022-09-27T02:03:31;4.80;;;0.93;;
59854;SDS011;45732;52.850;6.896;2022-09-27T02:08:32;8.38;;;1.10;;
59854;SDS011;45732;52.850;6.896;2022-09-27T02:11:10;9.15;;;1.20;;
59854;SDS011;45732;52.850;6.896;2022-09-27T02:13:53;3.92;;;0.90;;
59854;SDS011;45732;52.850;6.896;2022-09-27T02:16:21;3.58;;;0.80;;
59854;SDS011;45732;52.850;6.896;2022-09-27T02:19:08;3.95;;;0.90;;
59854;SDS011;45732;52.850;6.896;2022-09-27T02:24:29;5.95;;;0.70;;
59854;SDS011;45732;52.850;6.896;2022-09-27T02:27:21;3.88;;;0.95;;
59854;SDS011;45732;52.850;6.896;2022-09-27T02:29:55;6.18;;;0.98;;
59854;SDS011;45732;52.850;6.896;2022-09-27T02:32:30;5.07;;;1.02;;
59854;SDS011;45732;52.850;6.896;2022-09-27T02:34:57;5.88;;;1.15;;
59854;SDS011;45732;52.850;6.896;2022-09-27T02:37:27;3.85;;;0.90;;
59854;SDS011;45732;52.850;6.896;2022-09-27T02:39:54;4.78;;;0.70;;
59854;SDS011;45732;52.850;6.896;2022-09-27T02:42:21;10.57;;;1.13;;
59854;SDS011;45732;52.850;6.896;2022-09-27T02:44:47;6.75;;;0.80;;
59854;SDS011;45732;52.850;6.896;2022-09-27T02:53:13;4.40;;;0.73;;
59854;SDS011;45732;52.850;6.896;2022-09-27T03:06:58;6.07;;;0.88;;
59854;SDS011;45732;52.850;6.896;2022-09-27T03:09:27;7.70;;;1.10;;
59854;SDS011;45732;52.850;6.896;2022-09-27T03:11:54;6.57;;;0.75;;
59854;SDS011;45732;52.850;6.896;2022-09-27T03:14:20;7.25;;;1.23;;
59854;SDS011;45732;52.850;6.896;2022-09-27T03:16:45;4.28;;;0.68;;
59854;SDS011;45732;52.850;6.896;2022-09-27T03:19:11;5.18;;;1.00;;
59854;SDS011;45732;52.850;6.896;2022-09-27T03:21:37;4.22;;;0.80;;
59854;SDS011;45732;52.850;6.896;2022-09-27T03:24:04;6.10;;;1.02;;
59854;SDS011;45732;52.850;6.896;2022-09-27T03:26:29;4.43;;;0.82;;
59854;SDS011;45732;52.850;6.896;2022-09-27T03:28:55;6.38;;;0.80;;
59854;SDS011;45732;52.850;6.896;2022-09-27T03:31:21;5.28;;;0.85;;
59854;SDS011;45732;52.850;6.896;2022-09-27T03:33:47;3.03;;;0.70;;
59854;SDS011;45732;52.850;6.896;2022-09-27T03:36:12;5.70;;;0.93;;
59854;SDS011;45732;52.850;6.896;2022-09-27T03:38:38;3.60;;;0.77;;
59854;SDS011;45732;52.850;6.896;2022-09-27T03:41:04;2.92;;;0.70;;
59854;SDS011;45732;52.850;6.896;2022-09-27T03:43:30;4.32;;;1.13;;
59854;SDS011;45732;52.850;6.896;2022-09-27T03:45:56;6.65;;;0.90;;
59854;SDS011;45732;52.850;6.896;2022-09-27T03:48:21;5.45;;;0.82;;
59854;SDS011;45732;52.850;6.896;2022-09-27T03:50:47;6.15;;;0.88;;
59854;SDS011;45732;52.850;6.896;2022-09-27T03:53:15;4.40;;;0.77;;
59854;SDS011;45732;52.850;6.896;2022-09-27T03:55:40;6.38;;;0.90;;
59854;SDS011;45732;52.850;6.896;2022-09-27T03:58:09;3.53;;;0.65;;
59854;SDS011;45732;52.850;6.896;2022-09-27T04:00:34;3.38;;;0.65;;
59854;SDS011;45732;52.850;6.896;2022-09-27T04:03:01;4.72;;;0.90;;
59854;SDS011;45732;52.850;6.896;2022-09-27T04:05:27;6.28;;;0.60;;
59854;SDS011;45732;52.850;6.896;2022-09-27T04:07:53;3.80;;;0.60;;
59854;SDS011;45732;52.850;6.896;2022-09-27T04:10:19;6.75;;;1.05;;
59854;SDS011;45732;52.850;6.896;2022-09-27T04:12:45;5.60;;;0.70;;
59854;SDS011;45732;52.850;6.896;2022-09-27T04:15:11;3.55;;;0.60;;
59854;SDS011;45732;52.850;6.896;2022-09-27T04:17:39;4.82;;;0.80;;
59854;SDS011;45732;52.850;6.896;2022-09-27T04:20:06;3.33;;;0.60;;
59854;SDS011;45732;52.850;6.896;2022-09-27T04:22:33;3.78;;;0.50;;
59854;SDS011;45732;52.850;6.896;2022-09-27T04:24:59;4.10;;;0.80;;
59854;SDS011;45732;52.850;6.896;2022-09-27T04:27:24;3.63;;;0.60;;
59854;SDS011;45732;52.850;6.896;2022-09-27T04:29:50;3.33;;;0.80;;
59854;SDS011;45732;52.850;6.896;2022-09-27T04:32:16;2.67;;;0.57;;
59854;SDS011;45732;52.850;6.896;2022-09-27T04:34:41;2.78;;;0.40;;
59854;SDS011;45732;52.850;6.896;2022-09-27T04:37:25;4.47;;;0.80;;
59854;SDS011;45732;52.850;6.896;2022-09-27T04:39:51;4.22;;;0.82;;
59854;SDS011;45732;52.850;6.896;2022-09-27T04:42:17;4.43;;;0.70;;
59854;SDS011;45732;52.850;6.896;2022-09-27T04:44:43;6.22;;;0.90;;
59854;SDS011;45732;52.850;6.896;2022-09-27T04:47:09;5.90;;;0.90;;
59854;SDS011;45732;52.850;6.896;2022-09-27T04:49:34;3.58;;;0.88;;
59854;SDS011;45732;52.850;6.896;2022-09-27T04:52:00;6.35;;;0.93;;
59854;SDS011;45732;52.850;6.896;2022-09-27T04:54:26;5.80;;;0.90;;
59854;SDS011;45732;52.850;6.896;2022-09-27T04:56:53;5.05;;;0.85;;
59854;SDS011;45732;52.850;6.896;2022-09-27T04:59:19;4.75;;;0.73;;
59854;SDS011;45732;52.850;6.896;2022-09-27T05:01:45;4.30;;;0.80;;
59854;SDS011;45732;52.850;6.896;2022-09-27T05:04:11;6.10;;;0.80;;
59854;SDS011;45732;52.850;6.896;2022-09-27T05:06:37;3.67;;;0.73;;
59854;SDS011;45732;52.850;6.896;2022-09-27T05:09:02;4.97;;;0.70;;
59854;SDS011;45732;52.850;6.896;2022-09-27T05:11:28;2.47;;;0.80;;
59854;SDS011;45732;52.850;6.896;2022-09-27T05:13:54;7.30;;;0.88;;
59854;SDS011;45732;52.850;6.896;2022-09-27T05:16:19;5.80;;;0.88;;
59854;SDS011;45732;52.850;6.896;2022-09-27T05:18:45;6.22;;;1.05;;
59854;SDS011;45732;52.850;6.896;2022-09-27T05:21:11;4.45;;;0.80;;
59854;SDS011;45732;52.850;6.896;2022-09-27T05:23:37;7.80;;;1.00;;
59854;SDS011;45732;52.850;6.896;2022-09-27T05:26:04;5.00;;;1.15;;
59854;SDS011;45732;52.850;6.896;2022-09-27T05:28:30;4.75;;;0.80;;
59854;SDS011;45732;52.850;6.896;2022-09-27T05:30:56;6.63;;;0.93;;
59854;SDS011;45732;52.850;6.896;2022-09-27T05:33:30;5.38;;;1.38;;
59854;SDS011;45732;52.850;6.896;2022-09-27T05:35:58;5.90;;;0.82;;
59854;SDS011;45732;52.850;6.896;2022-09-27T05:38:24;5.57;;;0.80;;
59854;SDS011;45732;52.850;6.896;2022-09-27T05:40:50;2.78;;;0.70;;
59854;SDS011;45732;52.850;6.896;2022-09-27T05:43:16;3.97;;;0.85;;
59854;SDS011;45732;52.850;6.896;2022-09-27T05:45:42;2.60;;;0.70;;
59854;SDS011;45732;52.850;6.896;2022-09-27T05:48:08;4.13;;;0.80;;
59854;SDS011;45732;52.850;6.896;2022-09-27T05:50:36;4.35;;;1.05;;
59854;SDS011;45732;52.850;6.896;2022-09-27T05:53:02;4.82;;;0.80;;
59854;SDS011;45732;52.850;6.896;2022-09-27T05:55:28;2.67;;;0.88;;
59854;SDS011;45732;52.850;6.896;2022-09-27T05:57:55;5.70;;;0.80;;
59854;SDS011;45732;52.850;6.896;2022-09-27T06:00:26;4.68;;;0.70;;
59854;SDS011;45732;52.850;6.896;2022-09-27T06:02:55;3.80;;;0.82;;
59854;SDS011;45732;52.850;6.896;2022-09-27T06:05:24;6.38;;;0.82;;
59854;SDS011;45732;52.850;6.896;2022-09-27T06:07:51;4.45;;;0.75;;
59854;SDS011;45732;52.850;6.896;2022-09-27T06:10:26;5.70;;;0.90;;
59854;SDS011;45732;52.850;6.896;2022-09-27T06:12:52;3.53;;;0.73;;
59854;SDS011;45732;52.850;6.896;2022-09-27T06:15:22;3.08;;;0.98;;
59854;SDS011;45732;52.850;6.896;2022-09-27T06:17:48;3.53;;;0.80;;
59854;SDS011;45732;52.850;6.896;2022-09-27T06:20:14;6.47;;;1.27;;
59854;SDS011;45732;52.850;6.896;2022-09-27T06:22:41;4.95;;;0.90;;
59854;SDS011;45732;52.850;6.896;2022-09-27T06:25:07;4.53;;;0.88;;
59854;SDS011;45732;52.850;6.896;2022-09-27T06:27:33;4.82;;;0.90;;
59854;SDS011;45732;52.850;6.896;2022-09-27T06:29:59;6.13;;;0.93;;
59854;SDS011;45732;52.850;6.896;2022-09-27T06:32:25;6.95;;;0.90;;
59854;SDS011;45732;52.850;6.896;2022-09-27T06:34:51;2.80;;;0.70;;
59854;SDS011;45732;52.850;6.896;2022-09-27T06:37:16;4.75;;;0.93;;
59854;SDS011;45732;52.850;6.896;2022-09-27T06:39:42;7.93;;;1.10;;
59854;SDS011;45732;52.850;6.896;2022-09-27T06:42:08;3.72;;;0.80;;
59854;SDS011;45732;52.850;6.896;2022-09-27T06:44:35;3.53;;;1.00;;
59854;SDS011;45732;52.850;6.896;2022-09-27T06:47:00;4.72;;;1.02;;
59854;SDS011;45732;52.850;6.896;2022-09-27T06:49:26;4.35;;;1.10;;
59854;SDS011;45732;52.850;6.896;2022-09-27T06:51:52;4.60;;;0.90;;
59854;SDS011;45732;52.850;6.896;2022-09-27T06:54:18;4.25;;;1.00;;
59854;SDS011;45732;52.850;6.896;2022-09-27T06:56:47;7.28;;;1.70;;
59854;SDS011;45732;52.850;6.896;2022-09-27T06:59:13;4.93;;;1.40;;
59854;SDS011;45732;52.850;6.896;2022-09-27T07:01:57;4.38;;;1.30;;
59854;SDS011;45732;52.850;6.896;2022-09-27T07:04:24;7.07;;;1.02;;
59854;SDS011;45732;52.850;6.896;2022-09-27T07:06:49;4.53;;;0.90;;
59854;SDS011;45732;52.850;6.896;2022-09-27T07:09:15;6.75;;;1.45;;
59854;SDS011;45732;52.850;6.896;2022-09-27T07:11:41;5.18;;;1.00;;
59854;SDS011;45732;52.850;6.896;2022-09-27T07:14:08;6.72;;;1.10;;
59854;SDS011;45732;52.850;6.896;2022-09-27T07:16:34;4.53;;;1.10;;
59854;SDS011;45732;52.850;6.896;2022-09-27T07:19:00;6.90;;;0.90;;
59854;SDS011;45732;52.850;6.896;2022-09-27T07:21:26;4.82;;;0.90;;
59854;SDS011;45732;52.850;6.896;2022-09-27T07:23:52;4.15;;;0.90;;
59854;SDS011;45732;52.850;6.896;2022-09-27T07:26:18;5.20;;;1.20;;
59854;SDS011;45732;52.850;6.896;2022-09-27T07:28:44;5.68;;;0.80;;
59854;SDS011;45732;52.850;6.896;2022-09-27T07:31:10;3.83;;;0.95;;
59854;SDS011;45732;52.850;6.896;2022-09-27T07:33:36;4.97;;;0.80;;
59854;SDS011;45732;52.850;6.896;2022-09-27T07:36:06;4.05;;;0.77;;
59854;SDS011;45732;52.850;6.896;2022-09-27T07:38:33;6.88;;;1.00;;
59854;SDS011;45732;52.850;6.896;2022-09-27T07:41:03;5.53;;;1.10;;
59854;SDS011;45732;52.850;6.896;2022-09-27T07:43:30;5.80;;;1.10;;
59854;SDS011;45732;52.850;6.896;2022-09-27T07:45:57;3.95;;;1.20;;
59854;SDS011;45732;52.850;6.896;2022-09-27T07:48:22;3.95;;;0.80;;
59854;SDS011;45732;52.850;6.896;2022-09-27T07:50:48;4.22;;;0.80;;
59854;SDS011;45732;52.850;6.896;2022-09-27T07:53:14;4.22;;;1.00;;
59854;SDS011;45732;52.850;6.896;2022-09-27T07:55:40;2.78;;;0.70;;
59854;SDS011;45732;52.850;6.896;2022-09-27T07:58:07;8.18;;;0.98;;
59854;SDS011;45732;52.850;6.896;2022-09-27T08:00:35;3.72;;;0.80;;
59854;SDS011;45732;52.850;6.896;2022-09-27T08:03:09;3.10;;;0.80;;
59854;SDS011;45732;52.850;6.896;2022-09-27T08:05:39;3.70;;;0.82;;
59854;SDS011;45732;52.850;6.896;2022-09-27T08:08:04;3.90;;;0.93;;
59854;SDS011;45732;52.850;6.896;2022-09-27T08:10:30;4.18;;;0.95;;
59854;SDS011;45732;52.850;6.896;2022-09-27T08:12:57;5.50;;;0.90;;
59854;SDS011;45732;52.850;6.896;2022-09-27T08:15:25;3.67;;;0.98;;
59854;SDS011;45732;52.850;6.896;2022-09-27T08:17:52;4.00;;;1.10;;
59854;SDS011;45732;52.850;6.896;2022-09-27T08:20:18;4.30;;;1.00;;
59854;SDS011;45732;52.850;6.896;2022-09-27T08:22:44;5.05;;;0.90;;
59854;SDS011;45732;52.850;6.896;2022-09-27T08:25:10;4.78;;;0.80;;
59854;SDS011;45732;52.850;6.896;2022-09-27T08:27:35;5.45;;;1.20;;
59854;SDS011;45732;52.850;6.896;2022-09-27T08:30:01;8.73;;;1.30;;
59854;SDS011;45732;52.850;6.896;2022-09-27T08:32:28;8.18;;;1.40;;
59854;SDS011;45732;52.850;6.896;2022-09-27T08:34:55;5.85;;;1.40;;
59854;SDS011;45732;52.850;6.896;2022-09-27T08:37:21;5.93;;;0.85;;
59854;SDS011;45732;52.850;6.896;2022-09-27T08:39:46;2.28;;;0.77;;
59854;SDS011;45732;52.850;6.896;2022-09-27T08:45:33;5.50;;;1.00;;
59854;SDS011;45732;52.850;6.896;2022-09-27T08:47:46;4.88;;;0.98;;
59854;SDS011;45732;52.850;6.896;2022-09-27T08:50:32;7.32;;;0.95;;
59854;SDS011;45732;52.850;6.896;2022-09-27T08:58:15;4.38;;;0.90;;
59854;SDS011;45732;52.850;6.896;2022-09-27T09:00:57;4.32;;;0.90;;
59854;SDS011;45732;52.850;6.896;2022-09-27T09:03:26;10.00;;;1.25;;
59854;SDS011;45732;52.850;6.896;2022-09-27T09:08:40;6.65;;;0.68;;
59854;SDS011;45732;52.850;6.896;2022-09-27T09:11:40;2.03;;;0.60;;
59854;SDS011;45732;52.850;6.896;2022-09-27T09:14:36;3.40;;;0.57;;
59854;SDS011;45732;52.850;6.896;2022-09-27T09:26:31;1.65;;;0.50;;
59854;SDS011;45732;52.850;6.896;2022-09-27T09:31:41;5.75;;;0.85;;
59854;SDS011;45732;52.850;6.896;2022-09-27T09:34:13;3.28;;;0.60;;
59854;SDS011;45732;52.850;6.896;2022-09-27T09:37:01;2.72;;;0.60;;
59854;SDS011;45732;52.850;6.896;2022-09-27T09:39:38;4.07;;;0.60;;
59854;SDS011;45732;52.850;6.896;2022-09-27T09:42:12;3.63;;;0.50;;
59854;SDS011;45732;52.850;6.896;2022-09-27T09:44:54;2.70;;;0.50;;
59854;SDS011;45732;52.850;6.896;2022-09-27T09:47:38;2.72;;;0.55;;
59854;SDS011;45732;52.850;6.896;2022-09-27T09:50:27;5.10;;;0.75;;
59854;SDS011;45732;52.850;6.896;2022-09-27T09:55:42;4.72;;;0.52;;
59854;SDS011;45732;52.850;6.896;2022-09-27T10:01:33;4.25;;;0.60;;
59854;SDS011;45732;52.850;6.896;2022-09-27T10:04:05;1.52;;;0.55;;
59854;SDS011;45732;52.850;6.896;2022-09-27T10:06:31;5.03;;;0.90;;
59854;SDS011;45732;52.850;6.896;2022-09-27T10:08:56;2.67;;;0.73;;
59854;SDS011;45732;52.850;6.896;2022-09-27T10:11:29;3.65;;;0.52;;
59854;SDS011;45732;52.850;6.896;2022-09-27T10:14:00;2.45;;;0.75;;
59854;SDS011;45732;52.850;6.896;2022-09-27T10:16:26;2.80;;;0.70;;
59854;SDS011;45732;52.850;6.896;2022-09-27T10:18:54;3.00;;;0.60;;
59854;SDS011;45732;52.850;6.896;2022-09-27T10:21:24;3.40;;;0.63;;
59854;SDS011;45732;52.850;6.896;2022-09-27T10:24:07;2.15;;;0.50;;
59854;SDS011;45732;52.850;6.896;2022-09-27T10:26:33;4.65;;;0.80;;
59854;SDS011;45732;52.850;6.896;2022-09-27T10:32:01;4.65;;;0.70;;
59854;SDS011;45732;52.850;6.896;2022-09-27T10:34:30;3.90;;;0.60;;
59854;SDS011;45732;52.850;6.896;2022-09-27T10:37:06;2.38;;;0.52;;
59854;SDS011;45732;52.850;6.896;2022-09-27T10:39:46;2.53;;;0.95;;
59854;SDS011;45732;52.850;6.896;2022-09-27T10:42:31;1.05;;;0.45;;
59854;SDS011;45732;52.850;6.896;2022-09-27T10:47:51;3.50;;;0.70;;
59854;SDS011;45732;52.850;6.896;2022-09-27T10:50:18;2.97;;;0.40;;
59854;SDS011;45732;52.850;6.896;2022-09-27T10:53:18;4.65;;;0.70;;
59854;SDS011;45732;52.850;6.896;2022-09-27T10:55:45;3.90;;;0.50;;
59854;SDS011;45732;52.850;6.896;2022-09-27T10:58:17;3.83;;;0.82;;
59854;SDS011;45732;52.850;6.896;2022-09-27T11:00:56;2.22;;;0.60;;
59854;SDS011;45732;52.850;6.896;2022-09-27T11:03:31;3.10;;;0.50;;
59854;SDS011;45732;52.850;6.896;2022-09-27T11:08:42;3.80;;;0.50;;
59854;SDS011;45732;52.850;6.896;2022-09-27T11:11:18;2.53;;;0.50;;
59854;SDS011;45732;52.850;6.896;2022-09-27T11:13:58;4.40;;;0.68;;
59854;SDS011;45732;52.850;6.896;2022-09-27T11:16:38;1.83;;;0.60;;
59854;SDS011;45732;52.850;6.896;2022-09-27T11:31:11;2.03;;;0.43;;
59854;SDS011;45732;52.850;6.896;2022-09-27T11:39:22;2.67;;;0.40;;
59854;SDS011;45732;52.850;6.896;2022-09-27T11:41:55;1.80;;;0.30;;
59854;SDS011;45732;52.850;6.896;2022-09-27T11:47:03;1.27;;;0.22;;
59854;SDS011;45732;52.850;6.896;2022-09-27T12:00:23;2.45;;;0.32;;
59854;SDS011;45732;52.850;6.896;2022-09-27T12:03:15;2.78;;;0.30;;
59854;SDS011;45732;52.850;6.896;2022-09-27T12:05:48;1.52;;;0.40;;
59854;SDS011;45732;52.850;6.896;2022-09-27T12:11:02;0.85;;;0.30;;
59854;SDS011;45732;52.850;6.896;2022-09-27T12:13:40;1.55;;;0.40;;
59854;SDS011;45732;52.850;6.896;2022-09-27T12:16:11;2.40;;;0.40;;
59854;SDS011;45732;52.850;6.896;2022-09-27T12:18:41;2.85;;;0.40;;
59854;SDS011;45732;52.850;6.896;2022-09-27T12:21:09;1.02;;;0.43;;
59854;SDS011;45732;52.850;6.896;2022-09-27T12:23:49;1.38;;;0.30;;
59854;SDS011;45732;52.850;6.896;2022-09-27T12:29:26;1.75;;;0.57;;
59854;SDS011;45732;52.850;6.896;2022-09-27T12:32:44;1.80;;;0.30;;
59854;SDS011;45732;52.850;6.896;2022-09-27T12:35:35;1.73;;;0.45;;
59854;SDS011;45732;52.850;6.896;2022-09-27T12:40:34;0.82;;;0.40;;
59854;SDS011;45732;52.850;6.896;2022-09-27T12:43:08;1.52;;;0.88;;
59854;SDS011;45732;52.850;6.896;2022-09-27T12:48:21;2.53;;;0.30;;
59854;SDS011;45732;52.850;6.896;2022-09-27T12:51:07;1.20;;;0.35;;
59854;SDS011;45732;52.850;6.896;2022-09-27T12:59:02;3.13;;;0.35;;
59854;SDS011;45732;52.850;6.896;2022-09-27T13:07:24;1.38;;;0.47;;
59854;SDS011;45732;52.850;6.896;2022-09-27T13:12:31;3.40;;;0.60;;
59854;SDS011;45732;52.850;6.896;2022-09-27T13:14:59;2.22;;;0.40;;
59854;SDS011;45732;52.850;6.896;2022-09-27T13:17:49;2.58;;;0.57;;
59854;SDS011;45732;52.850;6.896;2022-09-27T13:20:31;3.17;;;0.88;;
59854;SDS011;45732;52.850;6.896;2022-09-27T13:22:57;2.40;;;0.60;;
59854;SDS011;45732;52.850;6.896;2022-09-27T13:30:57;4.93;;;0.70;;
59854;SDS011;45732;52.850;6.896;2022-09-27T13:33:29;3.17;;;0.60;;
59854;SDS011;45732;52.850;6.896;2022-09-27T13:36:15;3.67;;;0.57;;
59854;SDS011;45732;52.850;6.896;2022-09-27T13:50:00;1.55;;;0.45;;
59854;SDS011;45732;52.850;6.896;2022-09-27T13:52:41;1.63;;;0.50;;
59854;SDS011;45732;52.850;6.896;2022-09-27T14:00:43;1.55;;;0.45;;
59854;SDS011;45732;52.850;6.896;2022-09-27T14:03:16;1.42;;;0.40;;
59854;SDS011;45732;52.850;6.896;2022-09-27T14:05:57;3.88;;;0.60;;
59854;SDS011;45732;52.850;6.896;2022-09-27T14:11:03;2.88;;;0.68;;
59854;SDS011;45732;52.850;6.896;2022-09-27T14:13:36;4.03;;;0.90;;
59854;SDS011;45732;52.850;6.896;2022-09-27T14:16:04;6.60;;;0.90;;
59854;SDS011;45732;52.850;6.896;2022-09-27T14:18:31;3.72;;;0.63;;
59854;SDS011;45732;52.850;6.896;2022-09-27T14:21:44;3.55;;;0.88;;
59854;SDS011;45732;52.850;6.896;2022-09-27T14:23:53;3.13;;;0.60;;
59854;SDS011;45732;52.850;6.896;2022-09-27T14:26:39;3.47;;;0.63;;
59854;SDS011;45732;52.850;6.896;2022-09-27T14:29:16;2.80;;;0.70;;
59854;SDS011;45732;52.850;6.896;2022-09-27T14:31:43;2.05;;;0.57;;
59854;SDS011;45732;52.850;6.896;2022-09-27T14:34:11;1.45;;;0.60;;
59854;SDS011;45732;52.850;6.896;2022-09-27T14:36:37;2.28;;;0.60;;
59854;SDS011;45732;52.850;6.896;2022-09-27T14:39:23;4.15;;;0.70;;
59854;SDS011;45732;52.850;6.896;2022-09-27T14:41:55;2.67;;;0.90;;
59854;SDS011;45732;52.850;6.896;2022-09-27T14:44:21;1.88;;;0.50;;
59854;SDS011;45732;52.850;6.896;2022-09-27T14:46:48;2.40;;;0.40;;
59854;SDS011;45732;52.850;6.896;2022-09-27T14:49:47;0.63;;;0.40;;
59854;SDS011;45732;52.850;6.896;2022-09-27T14:52:22;1.63;;;0.30;;
59854;SDS011;45732;52.850;6.896;2022-09-27T14:54:55;1.63;;;0.40;;
59854;SDS011;45732;52.850;6.896;2022-09-27T14:57:31;2.92;;;0.40;;
59854;SDS011;45732;52.850;6.896;2022-09-27T15:00:00;1.13;;;0.32;;
59854;SDS011;45732;52.850;6.896;2022-09-27T15:02:40;3.05;;;0.50;;
59854;SDS011;45732;52.850;6.896;2022-09-27T15:05:15;1.27;;;0.40;;
59854;SDS011;45732;52.850;6.896;2022-09-27T15:07:42;1.48;;;0.43;;
59854;SDS011;45732;52.850;6.896;2022-09-27T15:10:18;2.83;;;0.70;;
59854;SDS011;45732;52.850;6.896;2022-09-27T15:12:46;1.33;;;0.50;;
59854;SDS011;45732;52.850;6.896;2022-09-27T15:15:18;1.83;;;0.40;;
59854;SDS011;45732;52.850;6.896;2022-09-27T15:17:47;1.92;;;0.38;;
59854;SDS011;45732;52.850;6.896;2022-09-27T15:20:26;1.70;;;0.57;;
59854;SDS011;45732;52.850;6.896;2022-09-27T15:22:57;2.05;;;0.40;;
59854;SDS011;45732;52.850;6.896;2022-09-27T15:28:05;1.13;;;0.45;;
59854;SDS011;45732;52.850;6.896;2022-09-27T15:30:38;2.97;;;0.50;;
59854;SDS011;45732;52.850;6.896;2022-09-27T15:33:22;2.50;;;0.40;;
59854;SDS011;45732;52.850;6.896;2022-09-27T15:35:56;1.38;;;0.40;;
59854;SDS011;45732;52.850;6.896;2022-09-27T15:38:31;1.05;;;0.40;;
59854;SDS011;45732;52.850;6.896;2022-09-27T15:43:28;1.48;;;0.40;;
59854;SDS011;45732;52.850;6.896;2022-09-27T15:45:56;3.10;;;0.40;;
59854;SDS011;45732;52.850;6.896;2022-09-27T15:48:30;0.97;;;0.40;;
59854;SDS011;45732;52.850;6.896;2022-09-27T15:51:01;4.53;;;0.50;;
59854;SDS011;45732;52.850;6.896;2022-09-27T15:53:47;1.30;;;0.40;;
59854;SDS011;45732;52.850;6.896;2022-09-27T15:56:13;1.10;;;0.40;;
59854;SDS011;45732;52.850;6.896;2022-09-27T15:58:39;2.90;;;0.52;;
59854;SDS011;45732;52.850;6.896;2022-09-27T16:01:06;3.13;;;0.60;;
59854;SDS011;45732;52.850;6.896;2022-09-27T16:03:32;2.90;;;0.63;;
59854;SDS011;45732;52.850;6.896;2022-09-27T16:05:59;2.85;;;0.75;;
59854;SDS011;45732;52.850;6.896;2022-09-27T16:08:26;2.78;;;0.70;;
59854;SDS011;45732;52.850;6.896;2022-09-27T16:10:56;2.75;;;0.73;;
59854;SDS011;45732;52.850;6.896;2022-09-27T16:13:23;2.55;;;1.00;;
59854;SDS011;45732;52.850;6.896;2022-09-27T16:15:50;3.67;;;0.90;;
59854;SDS011;45732;52.850;6.896;2022-09-27T16:18:16;2.58;;;1.10;;
59854;SDS011;45732;52.850;6.896;2022-09-27T16:20:42;3.72;;;1.05;;
59854;SDS011;45732;52.850;6.896;2022-09-27T16:23:08;3.42;;;1.20;;
59854;SDS011;45732;52.850;6.896;2022-09-27T16:25:34;4.18;;;1.70;;
59854;SDS011;45732;52.850;6.896;2022-09-27T16:28:00;6.72;;;1.60;;
59854;SDS011;45732;52.850;6.896;2022-09-27T16:30:27;4.18;;;1.40;;
59854;SDS011;45732;52.850;6.896;2022-09-27T16:32:54;4.68;;;2.17;;
59854;SDS011;45732;52.850;6.896;2022-09-27T16:35:20;5.20;;;1.40;;
59854;SDS011;45732;52.850;6.896;2022-09-27T16:37:47;5.97;;;1.52;;
59854;SDS011;45732;52.850;6.896;2022-09-27T16:40:13;4.40;;;1.70;;
59854;SDS011;45732;52.850;6.896;2022-09-27T16:42:42;3.13;;;1.25;;
59854;SDS011;45732;52.850;6.896;2022-09-27T16:45:08;5.22;;;1.60;;
59854;SDS011;45732;52.850;6.896;2022-09-27T16:47:34;5.95;;;2.47;;
59854;SDS011;45732;52.850;6.896;2022-09-27T16:50:00;6.88;;;2.45;;
59854;SDS011;45732;52.850;6.896;2022-09-27T16:52:45;6.13;;;2.05;;
59854;SDS011;45732;52.850;6.896;2022-09-27T16:55:14;4.38;;;1.60;;
59854;SDS011;45732;52.850;6.896;2022-09-27T16:57:48;6.70;;;1.60;;
59854;SDS011;45732;52.850;6.896;2022-09-27T17:00:15;6.60;;;1.90;;
59854;SDS011;45732;52.850;6.896;2022-09-27T17:02:41;4.47;;;1.50;;
59854;SDS011;45732;52.850;6.896;2022-09-27T17:05:11;4.72;;;1.42;;
59854;SDS011;45732;52.850;6.896;2022-09-27T17:07:37;5.63;;;1.30;;
59854;SDS011;45732;52.850;6.896;2022-09-27T17:10:03;7.25;;;1.88;;
59854;SDS011;45732;52.850;6.896;2022-09-27T17:12:33;4.53;;;1.60;;
59854;SDS011;45732;52.850;6.896;2022-09-27T17:14:59;3.10;;;1.33;;
59854;SDS011;45732;52.850;6.896;2022-09-27T17:17:24;5.45;;;1.25;;
59854;SDS011;45732;52.850;6.896;2022-09-27T17:19:50;8.52;;;2.60;;
59854;SDS011;45732;52.850;6.896;2022-09-27T17:22:16;6.53;;;2.00;;
59854;SDS011;45732;52.850;6.896;2022-09-27T17:24:42;4.28;;;1.40;;
59854;SDS011;45732;52.850;6.896;2022-09-27T17:27:08;3.50;;;1.33;;
59854;SDS011;45732;52.850;6.896;2022-09-27T17:29:34;6.13;;;1.23;;
59854;SDS011;45732;52.850;6.896;2022-09-27T17:32:01;4.05;;;1.15;;
59854;SDS011;45732;52.850;6.896;2022-09-27T17:34:27;3.85;;;1.30;;
59854;SDS011;45732;52.850;6.896;2022-09-27T17:36:53;4.85;;;1.20;;
59854;SDS011;45732;52.850;6.896;2022-09-27T17:39:19;4.07;;;1.23;;
59854;SDS011;45732;52.850;6.896;2022-09-27T17:41:45;5.53;;;1.40;;
59854;SDS011;45732;52.850;6.896;2022-09-27T17:44:13;4.93;;;1.30;;
59854;SDS011;45732;52.850;6.896;2022-09-27T17:46:40;4.85;;;1.40;;
59854;SDS011;45732;52.850;6.896;2022-09-27T17:49:07;5.68;;;1.40;;
59854;SDS011;45732;52.850;6.896;2022-09-27T17:51:52;3.83;;;1.48;;
59854;SDS011;45732;52.850;6.896;2022-09-27T17:54:19;4.45;;;1.45;;
59854;SDS011;45732;52.850;6.896;2022-09-27T17:56:47;3.60;;;1.17;;